sensor_id;sensor_type;location;lat;lon;timestamp;temperature;humidity
6252;DHT22;3159;52.414;9.784;2022-11-12T00:00:12;9.50;99.90
6252;DHT22;3159;52.414;9.784;2022-11-12T00:02:39;9.50;99.90
6252;DHT22;3159;52.414;9.784;2022-11-12T00:05:06;9.50;99.90
6252;DHT22;3159;52.414;9.784;2022-11-12T00:07:33;9.40;99.90
6252;DHT22;3159;52.414;9.784;2022-11-12T00:10:00;9.40;99.90
6252;DHT22;3159;52.414;9.784;2022-11-12T00:12:27;9.40;99.90
6252;DHT22;3159;52.414;9.784;2022-11-12T00:14:55;9.40;99.90
6252;DHT22;3159;52.414;9.784;2022-11-12T00:17:22;9.40;99.90
6252;DHT22;3159;52.414;9.784;2022-11-12T00:19:49;9.40;99.90
6252;DHT22;3159;52.414;9.784;2022-11-12T00:22:16;9.30;99.90
6252;DHT22;3159;52.414;9.784;2022-11-12T00:24:43;9.40;99.90
6252;DHT22;3159;52.414;9.784;2022-11-12T00:27:10;9.40;99.90
6252;DHT22;3159;52.414;9.784;2022-11-12T00:29:37;9.30;99.90
6252;DHT22;3159;52.414;9.784;2022-11-12T00:32:06;9.30;99.90
6252;DHT22;3159;52.414;9.784;2022-11-12T00:34:33;9.30;99.90
6252;DHT22;3159;52.414;9.784;2022-11-12T00:37:00;9.30;99.90
6252;DHT22;3159;52.414;9.784;2022-11-12T00:39:27;9.30;99.90
6252;DHT22;3159;52.414;9.784;2022-11-12T00:41:54;9.30;99.90
6252;DHT22;3159;52.414;9.784;2022-11-12T00:44:22;9.30;99.90
6252;DHT22;3159;52.414;9.784;2022-11-12T00:46:48;9.30;99.90
6252;DHT22;3159;52.414;9.784;2022-11-12T00:49:17;9.20;99.90
6252;DHT22;3159;52.414;9.784;2022-11-12T00:51:43;9.20;99.90
6252;DHT22;3159;52.414;9.784;2022-11-12T00:54:10;9.20;99.90
6252;DHT22;3159;52.414;9.784;2022-11-12T00:56:37;9.20;99.90
6252;DHT22;3159;52.414;9.784;2022-11-12T00:59:04;9.20;99.90
6252;DHT22;3159;52.414;9.784;2022-11-12T01:01:31;9.10;99.90
6252;DHT22;3159;52.414;9.784;2022-11-12T01:03:58;9.10;99.90
6252;DHT22;3159;52.414;9.784;2022-11-12T01:06:27;9.10;99.90
6252;DHT22;3159;52.414;9.784;2022-11-12T01:08:54;9.10;99.90
6252;DHT22;3159;52.414;9.784;2022-11-12T01:11:22;9.10;99.90
6252;DHT22;3159;52.414;9.784;2022-11-12T01:13:53;9.10;99.90
6252;DHT22;3159;52.414;9.784;2022-11-12T01:16:21;9.00;99.90
6252;DHT22;3159;52.414;9.784;2022-11-12T01:18:51;9.00;99.90
6252;DHT22;3159;52.414;9.784;2022-11-12T01:21:18;9.00;99.90
6252;DHT22;3159;52.414;9.784;2022-11-12T01:23:47;9.00;99.90
6252;DHT22;3159;52.414;9.784;2022-11-12T01:26:16;9.00;99.90
6252;DHT22;3159;52.414;9.784;2022-11-12T01:28:43;9.00;99.90
6252;DHT22;3159;52.414;9.784;2022-11-12T01:31:12;8.90;99.90
6252;DHT22;3159;52.414;9.784;2022-11-12T01:33:39;8.80;99.90
6252;DHT22;3159;52.414;9.784;2022-11-12T01:36:06;8.80;99.90
6252;DHT22;3159;52.414;9.784;2022-11-12T01:38:33;8.90;99.90
6252;DHT22;3159;52.414;9.784;2022-11-12T01:41:03;8.90;99.90
6252;DHT22;3159;52.414;9.784;2022-11-12T01:43:30;8.90;99.90
6252;DHT22;3159;52.414;9.784;2022-11-12T01:45:57;8.90;99.90
6252;DHT22;3159;52.414;9.784;2022-11-12T01:48:27;8.90;99.90
6252;DHT22;3159;52.414;9.784;2022-11-12T01:50:55;8.90;99.90
6252;DHT22;3159;52.414;9.784;2022-11-12T01:53:24;8.90;99.90
6252;DHT22;3159;52.414;9.784;2022-11-12T01:55:52;8.90;99.90
6252;DHT22;3159;52.414;9.784;2022-11-12T01:58:23;8.90;99.90
6252;DHT22;3159;52.414;9.784;2022-11-12T02:00:51;8.90;99.90
6252;DHT22;3159;52.414;9.784;2022-11-12T02:03:21;8.90;99.90
6252;DHT22;3159;52.414;9.784;2022-11-12T02:05:52;8.80;99.90
6252;DHT22;3159;52.414;9.784;2022-11-12T02:08:21;8.80;99.90
6252;DHT22;3159;52.414;9.784;2022-11-12T02:10:49;8.80;99.90
6252;DHT22;3159;52.414;9.784;2022-11-12T02:13:17;8.80;99.90
6252;DHT22;3159;52.414;9.784;2022-11-12T02:16:04;8.70;99.90
6252;DHT22;3159;52.414;9.784;2022-11-12T02:18:32;8.70;99.90
6252;DHT22;3159;52.414;9.784;2022-11-12T02:21:04;8.70;99.90
6252;DHT22;3159;52.414;9.784;2022-11-12T02:23:34;8.70;99.90
6252;DHT22;3159;52.414;9.784;2022-11-12T02:26:02;8.70;99.90
6252;DHT22;3159;52.414;9.784;2022-11-12T02:28:30;8.70;99.90
6252;DHT22;3159;52.414;9.784;2022-11-12T02:30:57;8.70;99.90
6252;DHT22;3159;52.414;9.784;2022-11-12T02:33:24;8.60;99.90
6252;DHT22;3159;52.414;9.784;2022-11-12T02:35:51;8.60;99.90
6252;DHT22;3159;52.414;9.784;2022-11-12T02:38:18;8.60;99.90
6252;DHT22;3159;52.414;9.784;2022-11-12T02:40:46;8.60;99.90
6252;DHT22;3159;52.414;9.784;2022-11-12T02:43:12;8.60;99.90
6252;DHT22;3159;52.414;9.784;2022-11-12T02:45:39;8.60;99.90
6252;DHT22;3159;52.414;9.784;2022-11-12T02:48:06;8.60;99.90
6252;DHT22;3159;52.414;9.784;2022-11-12T02:50:33;8.60;99.90
6252;DHT22;3159;52.414;9.784;2022-11-12T02:53:00;8.60;99.90
6252;DHT22;3159;52.414;9.784;2022-11-12T02:55:27;8.60;99.90
6252;DHT22;3159;52.414;9.784;2022-11-12T02:57:57;8.50;99.90
6252;DHT22;3159;52.414;9.784;2022-11-12T03:00:25;8.50;99.90
6252;DHT22;3159;52.414;9.784;2022-11-12T03:02:52;8.50;99.90
6252;DHT22;3159;52.414;9.784;2022-11-12T03:05:25;8.50;99.90
6252;DHT22;3159;52.414;9.784;2022-11-12T03:07:55;8.50;99.90
6252;DHT22;3159;52.414;9.784;2022-11-12T03:10:23;8.50;99.90
6252;DHT22;3159;52.414;9.784;2022-11-12T03:12:50;8.40;99.90
6252;DHT22;3159;52.414;9.784;2022-11-12T03:15:18;8.40;99.90
6252;DHT22;3159;52.414;9.784;2022-11-12T03:17:45;8.50;99.90
6252;DHT22;3159;52.414;9.784;2022-11-12T03:20:12;8.50;99.90
6252;DHT22;3159;52.414;9.784;2022-11-12T03:22:40;8.40;99.90
6252;DHT22;3159;52.414;9.784;2022-11-12T03:25:08;8.40;99.90
6252;DHT22;3159;52.414;9.784;2022-11-12T03:27:35;8.40;99.90
6252;DHT22;3159;52.414;9.784;2022-11-12T03:30:05;8.40;99.90
6252;DHT22;3159;52.414;9.784;2022-11-12T03:32:33;8.30;99.90
6252;DHT22;3159;52.414;9.784;2022-11-12T03:35:00;8.30;99.90
6252;DHT22;3159;52.414;9.784;2022-11-12T03:37:29;8.20;99.90
6252;DHT22;3159;52.414;9.784;2022-11-12T03:39:56;8.20;99.90
6252;DHT22;3159;52.414;9.784;2022-11-12T03:42:22;8.20;99.90
6252;DHT22;3159;52.414;9.784;2022-11-12T03:44:49;8.20;99.90
6252;DHT22;3159;52.414;9.784;2022-11-12T03:47:16;8.10;99.90
6252;DHT22;3159;52.414;9.784;2022-11-12T03:49:44;8.10;99.90
6252;DHT22;3159;52.414;9.784;2022-11-12T03:52:11;8.10;99.90
6252;DHT22;3159;52.414;9.784;2022-11-12T03:54:38;8.10;99.90
6252;DHT22;3159;52.414;9.784;2022-11-12T03:57:05;8.10;99.90
6252;DHT22;3159;52.414;9.784;2022-11-12T03:59:31;8.10;99.90
6252;DHT22;3159;52.414;9.784;2022-11-12T04:01:58;8.00;99.90
6252;DHT22;3159;52.414;9.784;2022-11-12T04:04:25;8.00;99.90
6252;DHT22;3159;52.414;9.784;2022-11-12T04:07:13;8.00;99.90
6252;DHT22;3159;52.414;9.784;2022-11-12T04:09:58;8.00;99.90
6252;DHT22;3159;52.414;9.784;2022-11-12T04:12:25;8.00;99.90
6252;DHT22;3159;52.414;9.784;2022-11-12T04:15:09;8.00;99.90
6252;DHT22;3159;52.414;9.784;2022-11-12T04:17:36;8.00;99.90
6252;DHT22;3159;52.414;9.784;2022-11-12T04:20:20;7.90;99.90
6252;DHT22;3159;52.414;9.784;2022-11-12T04:23:05;7.90;99.90
6252;DHT22;3159;52.414;9.784;2022-11-12T04:25:32;7.90;99.90
6252;DHT22;3159;52.414;9.784;2022-11-12T04:28:17;7.90;99.90
6252;DHT22;3159;52.414;9.784;2022-11-12T04:30:43;7.90;99.90
6252;DHT22;3159;52.414;9.784;2022-11-12T04:33:09;7.90;99.90
6252;DHT22;3159;52.414;9.784;2022-11-12T04:35:36;7.80;99.90
6252;DHT22;3159;52.414;9.784;2022-11-12T04:38:03;7.80;99.90
6252;DHT22;3159;52.414;9.784;2022-11-12T04:40:31;7.80;99.90
6252;DHT22;3159;52.414;9.784;2022-11-12T04:43:16;7.70;99.90
6252;DHT22;3159;52.414;9.784;2022-11-12T04:46:02;7.80;99.90
6252;DHT22;3159;52.414;9.784;2022-11-12T04:48:31;7.80;99.90
6252;DHT22;3159;52.414;9.784;2022-11-12T04:50:59;7.80;99.90
6252;DHT22;3159;52.414;9.784;2022-11-12T04:53:27;7.80;99.90
6252;DHT22;3159;52.414;9.784;2022-11-12T04:55:57;7.80;99.90
6252;DHT22;3159;52.414;9.784;2022-11-12T04:58:24;7.70;99.90
6252;DHT22;3159;52.414;9.784;2022-11-12T05:00:51;7.70;99.90
6252;DHT22;3159;52.414;9.784;2022-11-12T05:03:18;7.70;99.90
6252;DHT22;3159;52.414;9.784;2022-11-12T05:05:44;7.70;99.90
6252;DHT22;3159;52.414;9.784;2022-11-12T05:08:11;7.60;99.90
6252;DHT22;3159;52.414;9.784;2022-11-12T05:10:38;7.60;99.90
6252;DHT22;3159;52.414;9.784;2022-11-12T05:13:06;7.60;99.90
6252;DHT22;3159;52.414;9.784;2022-11-12T05:15:33;7.60;99.90
6252;DHT22;3159;52.414;9.784;2022-11-12T05:18:00;7.60;99.90
6252;DHT22;3159;52.414;9.784;2022-11-12T05:20:27;7.50;99.90
6252;DHT22;3159;52.414;9.784;2022-11-12T05:22:53;7.50;99.90
6252;DHT22;3159;52.414;9.784;2022-11-12T05:25:20;7.50;99.90
6252;DHT22;3159;52.414;9.784;2022-11-12T05:27:47;7.40;99.90
6252;DHT22;3159;52.414;9.784;2022-11-12T05:30:15;7.30;99.90
6252;DHT22;3159;52.414;9.784;2022-11-12T05:32:42;7.30;99.90
6252;DHT22;3159;52.414;9.784;2022-11-12T05:35:09;7.40;99.90
6252;DHT22;3159;52.414;9.784;2022-11-12T05:37:36;7.40;99.90
6252;DHT22;3159;52.414;9.784;2022-11-12T05:40:03;7.40;99.90
6252;DHT22;3159;52.414;9.784;2022-11-12T05:42:30;7.40;99.90
6252;DHT22;3159;52.414;9.784;2022-11-12T05:44:57;7.30;99.90
6252;DHT22;3159;52.414;9.784;2022-11-12T05:47:25;7.40;99.90
6252;DHT22;3159;52.414;9.784;2022-11-12T05:49:52;7.40;99.90
6252;DHT22;3159;52.414;9.784;2022-11-12T05:52:19;7.40;99.90
6252;DHT22;3159;52.414;9.784;2022-11-12T05:54:46;7.40;99.90
6252;DHT22;3159;52.414;9.784;2022-11-12T05:57:12;7.40;99.90
6252;DHT22;3159;52.414;9.784;2022-11-12T05:59:39;7.40;99.90
6252;DHT22;3159;52.414;9.784;2022-11-12T06:02:06;7.40;99.90
6252;DHT22;3159;52.414;9.784;2022-11-12T06:04:34;7.40;99.90
6252;DHT22;3159;52.414;9.784;2022-11-12T06:07:01;7.40;99.90
6252;DHT22;3159;52.414;9.784;2022-11-12T06:09:28;7.30;99.90
6252;DHT22;3159;52.414;9.784;2022-11-12T06:11:55;7.30;99.90
6252;DHT22;3159;52.414;9.784;2022-11-12T06:14:22;7.30;99.90
6252;DHT22;3159;52.414;9.784;2022-11-12T06:16:49;7.40;99.90
6252;DHT22;3159;52.414;9.784;2022-11-12T06:19:15;7.30;99.90
6252;DHT22;3159;52.414;9.784;2022-11-12T06:21:44;7.40;99.90
6252;DHT22;3159;52.414;9.784;2022-11-12T06:24:10;7.30;99.90
6252;DHT22;3159;52.414;9.784;2022-11-12T06:26:37;7.40;99.90
6252;DHT22;3159;52.414;9.784;2022-11-12T06:29:04;7.40;99.90
6252;DHT22;3159;52.414;9.784;2022-11-12T06:31:31;7.40;99.90
6252;DHT22;3159;52.414;9.784;2022-11-12T06:33:58;7.40;99.90
6252;DHT22;3159;52.414;9.784;2022-11-12T06:36:24;7.30;99.90
6252;DHT22;3159;52.414;9.784;2022-11-12T06:38:53;7.30;99.90
6252;DHT22;3159;52.414;9.784;2022-11-12T06:41:19;7.30;99.90
6252;DHT22;3159;52.414;9.784;2022-11-12T06:43:46;7.30;99.90
6252;DHT22;3159;52.414;9.784;2022-11-12T06:46:15;7.30;99.90
6252;DHT22;3159;52.414;9.784;2022-11-12T06:48:42;7.30;99.90
6252;DHT22;3159;52.414;9.784;2022-11-12T06:51:11;7.30;99.90
6252;DHT22;3159;52.414;9.784;2022-11-12T06:53:41;7.30;99.90
6252;DHT22;3159;52.414;9.784;2022-11-12T06:56:09;7.30;99.90
6252;DHT22;3159;52.414;9.784;2022-11-12T06:58:36;7.40;99.90
6252;DHT22;3159;52.414;9.784;2022-11-12T07:01:05;7.40;99.90
6252;DHT22;3159;52.414;9.784;2022-11-12T07:03:33;7.40;99.90
6252;DHT22;3159;52.414;9.784;2022-11-12T07:06:05;7.30;99.90
6252;DHT22;3159;52.414;9.784;2022-11-12T07:08:32;7.40;99.90
6252;DHT22;3159;52.414;9.784;2022-11-12T07:10:59;7.40;99.90
6252;DHT22;3159;52.414;9.784;2022-11-12T07:13:28;7.50;99.90
6252;DHT22;3159;52.414;9.784;2022-11-12T07:15:56;7.60;99.90
6252;DHT22;3159;52.414;9.784;2022-11-12T07:18:23;7.60;99.90
6252;DHT22;3159;52.414;9.784;2022-11-12T07:20:50;7.60;99.90
6252;DHT22;3159;52.414;9.784;2022-11-12T07:23:17;7.60;99.90
6252;DHT22;3159;52.414;9.784;2022-11-12T07:25:44;7.60;99.90
6252;DHT22;3159;52.414;9.784;2022-11-12T07:28:11;7.70;99.90
6252;DHT22;3159;52.414;9.784;2022-11-12T07:30:39;7.70;99.90
6252;DHT22;3159;52.414;9.784;2022-11-12T07:33:06;7.70;99.90
6252;DHT22;3159;52.414;9.784;2022-11-12T07:35:32;7.70;99.90
6252;DHT22;3159;52.414;9.784;2022-11-12T07:37:59;7.80;99.90
6252;DHT22;3159;52.414;9.784;2022-11-12T07:40:26;7.90;99.90
6252;DHT22;3159;52.414;9.784;2022-11-12T07:42:53;8.00;99.90
6252;DHT22;3159;52.414;9.784;2022-11-12T07:45:20;8.10;99.90
6252;DHT22;3159;52.414;9.784;2022-11-12T07:47:48;8.10;99.90
6252;DHT22;3159;52.414;9.784;2022-11-12T07:50:15;8.20;99.90
6252;DHT22;3159;52.414;9.784;2022-11-12T07:52:42;8.20;99.90
6252;DHT22;3159;52.414;9.784;2022-11-12T07:55:09;8.20;99.90
6252;DHT22;3159;52.414;9.784;2022-11-12T07:57:38;8.30;99.90
6252;DHT22;3159;52.414;9.784;2022-11-12T08:00:06;8.40;99.90
6252;DHT22;3159;52.414;9.784;2022-11-12T08:02:33;8.50;99.90
6252;DHT22;3159;52.414;9.784;2022-11-12T08:05:01;8.60;99.90
6252;DHT22;3159;52.414;9.784;2022-11-12T08:07:28;8.70;99.90
6252;DHT22;3159;52.414;9.784;2022-11-12T08:09:55;8.80;99.90
6252;DHT22;3159;52.414;9.784;2022-11-12T08:12:23;9.00;99.90
6252;DHT22;3159;52.414;9.784;2022-11-12T08:14:50;9.10;99.90
6252;DHT22;3159;52.414;9.784;2022-11-12T08:17:17;9.20;99.90
6252;DHT22;3159;52.414;9.784;2022-11-12T08:19:44;9.50;99.90
6252;DHT22;3159;52.414;9.784;2022-11-12T08:22:12;9.80;99.90
6252;DHT22;3159;52.414;9.784;2022-11-12T08:24:39;10.00;99.90
6252;DHT22;3159;52.414;9.784;2022-11-12T08:27:06;10.20;99.90
6252;DHT22;3159;52.414;9.784;2022-11-12T08:29:33;10.50;99.90
6252;DHT22;3159;52.414;9.784;2022-11-12T08:32:00;11.00;99.90
6252;DHT22;3159;52.414;9.784;2022-11-12T08:34:27;11.30;99.90
6252;DHT22;3159;52.414;9.784;2022-11-12T08:36:53;11.60;99.90
6252;DHT22;3159;52.414;9.784;2022-11-12T08:39:22;11.80;99.90
6252;DHT22;3159;52.414;9.784;2022-11-12T08:41:49;12.00;99.90
6252;DHT22;3159;52.414;9.784;2022-11-12T08:44:19;12.50;99.90
6252;DHT22;3159;52.414;9.784;2022-11-12T08:46:45;12.60;99.90
6252;DHT22;3159;52.414;9.784;2022-11-12T08:49:12;12.90;99.90
6252;DHT22;3159;52.414;9.784;2022-11-12T08:51:39;13.10;99.90
6252;DHT22;3159;52.414;9.784;2022-11-12T08:54:06;13.00;99.90
6252;DHT22;3159;52.414;9.784;2022-11-12T08:56:34;13.30;99.90
6252;DHT22;3159;52.414;9.784;2022-11-12T08:59:01;13.30;99.90
6252;DHT22;3159;52.414;9.784;2022-11-12T09:01:28;13.10;99.90
6252;DHT22;3159;52.414;9.784;2022-11-12T09:03:55;13.40;99.90
6252;DHT22;3159;52.414;9.784;2022-11-12T09:06:22;13.50;99.90
6252;DHT22;3159;52.414;9.784;2022-11-12T09:08:49;13.70;99.90
6252;DHT22;3159;52.414;9.784;2022-11-12T09:11:15;13.90;99.90
6252;DHT22;3159;52.414;9.784;2022-11-12T09:13:44;13.90;99.90
6252;DHT22;3159;52.414;9.784;2022-11-12T09:16:11;14.10;99.90
6252;DHT22;3159;52.414;9.784;2022-11-12T09:18:38;13.90;99.90
6252;DHT22;3159;52.414;9.784;2022-11-12T09:21:06;13.90;99.90
6252;DHT22;3159;52.414;9.784;2022-11-12T09:23:36;14.10;99.90
6252;DHT22;3159;52.414;9.784;2022-11-12T09:26:04;14.10;99.90
6252;DHT22;3159;52.414;9.784;2022-11-12T09:28:34;14.20;99.90
6252;DHT22;3159;52.414;9.784;2022-11-12T09:31:02;14.20;99.90
6252;DHT22;3159;52.414;9.784;2022-11-12T09:33:30;13.40;99.90
6252;DHT22;3159;52.414;9.784;2022-11-12T09:36:00;13.40;99.90
6252;DHT22;3159;52.414;9.784;2022-11-12T09:38:27;13.20;99.90
6252;DHT22;3159;52.414;9.784;2022-11-12T09:41:10;13.50;99.90
6252;DHT22;3159;52.414;9.784;2022-11-12T09:43:44;13.40;99.90
6252;DHT22;3159;52.414;9.784;2022-11-12T09:46:22;13.40;99.90
6252;DHT22;3159;52.414;9.784;2022-11-12T09:48:52;13.80;99.90
6252;DHT22;3159;52.414;9.784;2022-11-12T09:51:24;13.60;99.90
6252;DHT22;3159;52.414;9.784;2022-11-12T09:53:54;13.70;99.90
6252;DHT22;3159;52.414;9.784;2022-11-12T09:56:22;13.80;99.90
6252;DHT22;3159;52.414;9.784;2022-11-12T09:58:51;13.80;99.90
6252;DHT22;3159;52.414;9.784;2022-11-12T10:01:23;13.70;99.90
6252;DHT22;3159;52.414;9.784;2022-11-12T10:04:06;13.90;99.90
6252;DHT22;3159;52.414;9.784;2022-11-12T10:06:43;14.30;99.90
6252;DHT22;3159;52.414;9.784;2022-11-12T10:09:17;14.30;99.90
6252;DHT22;3159;52.414;9.784;2022-11-12T10:11:57;14.60;99.90
6252;DHT22;3159;52.414;9.784;2022-11-12T10:17:53;14.00;99.90
6252;DHT22;3159;52.414;9.784;2022-11-12T10:20:28;13.90;99.90
6252;DHT22;3159;52.414;9.784;2022-11-12T10:23:10;13.90;99.90
6252;DHT22;3159;52.414;9.784;2022-11-12T10:25:41;14.10;99.90
6252;DHT22;3159;52.414;9.784;2022-11-12T10:28:18;14.30;99.90
6252;DHT22;3159;52.414;9.784;2022-11-12T10:30:49;13.80;99.90
6252;DHT22;3159;52.414;9.784;2022-11-12T10:33:18;13.80;99.90
6252;DHT22;3159;52.414;9.784;2022-11-12T10:35:44;13.90;99.90
6252;DHT22;3159;52.414;9.784;2022-11-12T10:38:14;13.90;99.90
6252;DHT22;3159;52.414;9.784;2022-11-12T10:40:44;14.00;99.90
6252;DHT22;3159;52.414;9.784;2022-11-12T10:43:20;14.10;99.90
6252;DHT22;3159;52.414;9.784;2022-11-12T10:45:48;14.20;99.90
6252;DHT22;3159;52.414;9.784;2022-11-12T10:48:25;14.30;99.90
6252;DHT22;3159;52.414;9.784;2022-11-12T10:50:58;14.30;99.90
6252;DHT22;3159;52.414;9.784;2022-11-12T10:53:32;14.30;99.90
6252;DHT22;3159;52.414;9.784;2022-11-12T10:56:00;14.30;99.90
6252;DHT22;3159;52.414;9.784;2022-11-12T10:58:28;14.30;99.90
6252;DHT22;3159;52.414;9.784;2022-11-12T11:01:00;14.30;99.90
6252;DHT22;3159;52.414;9.784;2022-11-12T11:03:31;14.50;99.90
6252;DHT22;3159;52.414;9.784;2022-11-12T11:06:00;14.30;99.90
6252;DHT22;3159;52.414;9.784;2022-11-12T11:08:32;14.30;99.90
6252;DHT22;3159;52.414;9.784;2022-11-12T11:11:24;14.40;99.90
6252;DHT22;3159;52.414;9.784;2022-11-12T11:13:52;14.50;99.90
6252;DHT22;3159;52.414;9.784;2022-11-12T11:16:22;14.70;99.90
6252;DHT22;3159;52.414;9.784;2022-11-12T11:18:52;14.80;99.90
6252;DHT22;3159;52.414;9.784;2022-11-12T11:21:51;14.80;99.90
6252;DHT22;3159;52.414;9.784;2022-11-12T11:24:28;14.80;99.90
6252;DHT22;3159;52.414;9.784;2022-11-12T11:27:01;14.90;99.90
6252;DHT22;3159;52.414;9.784;2022-11-12T11:29:47;14.90;99.90
6252;DHT22;3159;52.414;9.784;2022-11-12T11:32:27;14.70;99.90
6252;DHT22;3159;52.414;9.784;2022-11-12T11:35:08;14.60;99.90
6252;DHT22;3159;52.414;9.784;2022-11-12T11:37:44;14.50;99.90
6252;DHT22;3159;52.414;9.784;2022-11-12T11:40:19;14.60;99.90
6252;DHT22;3159;52.414;9.784;2022-11-12T11:43:04;14.50;99.90
6252;DHT22;3159;52.414;9.784;2022-11-12T11:45:46;14.40;99.90
6252;DHT22;3159;52.414;9.784;2022-11-12T11:48:24;14.60;99.90
6252;DHT22;3159;52.414;9.784;2022-11-12T11:51:00;14.70;99.90
6252;DHT22;3159;52.414;9.784;2022-11-12T11:53:32;14.70;99.90
6252;DHT22;3159;52.414;9.784;2022-11-12T11:56:09;14.90;99.90
6252;DHT22;3159;52.414;9.784;2022-11-12T11:58:49;14.80;99.90
6252;DHT22;3159;52.414;9.784;2022-11-12T12:01:25;14.60;99.90
6252;DHT22;3159;52.414;9.784;2022-11-12T12:04:05;14.60;99.90
6252;DHT22;3159;52.414;9.784;2022-11-12T12:06:40;14.40;99.90
6252;DHT22;3159;52.414;9.784;2022-11-12T12:09:25;14.40;99.90
6252;DHT22;3159;52.414;9.784;2022-11-12T12:12:00;14.70;99.90
6252;DHT22;3159;52.414;9.784;2022-11-12T12:14:40;14.80;99.90
6252;DHT22;3159;52.414;9.784;2022-11-12T12:17:20;14.60;99.90
6252;DHT22;3159;52.414;9.784;2022-11-12T12:19:56;14.70;99.90
6252;DHT22;3159;52.414;9.784;2022-11-12T12:22:34;14.60;99.90
6252;DHT22;3159;52.414;9.784;2022-11-12T12:25:08;14.40;99.90
6252;DHT22;3159;52.414;9.784;2022-11-12T12:27:41;14.30;99.90
6252;DHT22;3159;52.414;9.784;2022-11-12T12:30:18;14.50;99.90
6252;DHT22;3159;52.414;9.784;2022-11-12T12:32:48;14.50;99.90
6252;DHT22;3159;52.414;9.784;2022-11-12T12:35:22;14.60;99.90
6252;DHT22;3159;52.414;9.784;2022-11-12T12:38:00;14.40;99.90
6252;DHT22;3159;52.414;9.784;2022-11-12T12:40:33;14.20;99.90
6252;DHT22;3159;52.414;9.784;2022-11-12T12:43:04;14.30;99.90
6252;DHT22;3159;52.414;9.784;2022-11-12T12:45:37;14.40;99.90
6252;DHT22;3159;52.414;9.784;2022-11-12T12:48:11;14.30;99.90
6252;DHT22;3159;52.414;9.784;2022-11-12T12:50:40;14.20;99.90
6252;DHT22;3159;52.414;9.784;2022-11-12T12:53:21;14.10;99.90
6252;DHT22;3159;52.414;9.784;2022-11-12T12:55:57;14.10;99.90
6252;DHT22;3159;52.414;9.784;2022-11-12T12:58:27;14.30;99.90
6252;DHT22;3159;52.414;9.784;2022-11-12T13:00:58;14.40;99.90
6252;DHT22;3159;52.414;9.784;2022-11-12T13:03:47;14.40;99.90
6252;DHT22;3159;52.414;9.784;2022-11-12T13:06:20;14.50;99.90
6252;DHT22;3159;52.414;9.784;2022-11-12T13:08:51;14.40;99.90
6252;DHT22;3159;52.414;9.784;2022-11-12T13:11:46;14.50;99.90
6252;DHT22;3159;52.414;9.784;2022-11-12T13:15:09;14.40;99.90
6252;DHT22;3159;52.414;9.784;2022-11-12T13:17:48;14.50;99.90
6252;DHT22;3159;52.414;9.784;2022-11-12T13:23:01;14.50;99.90
6252;DHT22;3159;52.414;9.784;2022-11-12T13:25:30;14.50;99.90
6252;DHT22;3159;52.414;9.784;2022-11-12T13:28:08;14.30;99.90
6252;DHT22;3159;52.414;9.784;2022-11-12T13:30:56;14.40;99.90
6252;DHT22;3159;52.414;9.784;2022-11-12T13:33:30;14.30;99.90
6252;DHT22;3159;52.414;9.784;2022-11-12T13:36:30;14.20;99.90
6252;DHT22;3159;52.414;9.784;2022-11-12T13:39:08;14.00;99.90
6252;DHT22;3159;52.414;9.784;2022-11-12T13:41:38;13.90;99.90
6252;DHT22;3159;52.414;9.784;2022-11-12T13:44:22;13.90;99.90
6252;DHT22;3159;52.414;9.784;2022-11-12T13:46:51;14.00;99.90
6252;DHT22;3159;52.414;9.784;2022-11-12T13:49:20;13.80;99.90
6252;DHT22;3159;52.414;9.784;2022-11-12T13:51:48;13.70;99.90
6252;DHT22;3159;52.414;9.784;2022-11-12T13:54:25;13.90;99.90
6252;DHT22;3159;52.414;9.784;2022-11-12T13:56:54;13.90;99.90
6252;DHT22;3159;52.414;9.784;2022-11-12T13:59:22;14.10;99.90
6252;DHT22;3159;52.414;9.784;2022-11-12T14:01:50;14.20;99.90
6252;DHT22;3159;52.414;9.784;2022-11-12T14:04:19;14.50;99.90
6252;DHT22;3159;52.414;9.784;2022-11-12T14:06:49;14.40;99.90
6252;DHT22;3159;52.414;9.784;2022-11-12T14:09:44;14.50;99.90
6252;DHT22;3159;52.414;9.784;2022-11-12T14:12:42;14.10;99.90
6252;DHT22;3159;52.414;9.784;2022-11-12T14:15:24;14.00;99.90
6252;DHT22;3159;52.414;9.784;2022-11-12T14:18:00;14.10;99.90
6252;DHT22;3159;52.414;9.784;2022-11-12T14:20:32;14.30;99.90
6252;DHT22;3159;52.414;9.784;2022-11-12T14:23:10;14.30;99.90
6252;DHT22;3159;52.414;9.784;2022-11-12T14:25:45;14.10;99.90
6252;DHT22;3159;52.414;9.784;2022-11-12T14:28:26;14.10;99.90
6252;DHT22;3159;52.414;9.784;2022-11-12T14:30:53;14.00;99.90
6252;DHT22;3159;52.414;9.784;2022-11-12T14:33:21;14.10;99.90
6252;DHT22;3159;52.414;9.784;2022-11-12T14:35:52;14.10;99.90
6252;DHT22;3159;52.414;9.784;2022-11-12T14:38:20;14.10;99.90
6252;DHT22;3159;52.414;9.784;2022-11-12T14:40:51;14.10;99.90
6252;DHT22;3159;52.414;9.784;2022-11-12T14:43:23;14.00;99.90
6252;DHT22;3159;52.414;9.784;2022-11-12T14:45:53;14.00;99.90
6252;DHT22;3159;52.414;9.784;2022-11-12T14:48:21;13.60;99.90
6252;DHT22;3159;52.414;9.784;2022-11-12T14:50:53;13.70;99.90
6252;DHT22;3159;52.414;9.784;2022-11-12T14:53:24;13.80;99.90
6252;DHT22;3159;52.414;9.784;2022-11-12T14:55:53;13.80;99.90
6252;DHT22;3159;52.414;9.784;2022-11-12T14:58:22;13.60;99.90
6252;DHT22;3159;52.414;9.784;2022-11-12T15:00:54;13.60;99.90
6252;DHT22;3159;52.414;9.784;2022-11-12T15:03:23;13.60;99.90
6252;DHT22;3159;52.414;9.784;2022-11-12T15:05:56;13.60;99.90
6252;DHT22;3159;52.414;9.784;2022-11-12T15:08:28;13.50;99.90
6252;DHT22;3159;52.414;9.784;2022-11-12T15:10:57;13.40;99.90
6252;DHT22;3159;52.414;9.784;2022-11-12T15:13:40;13.30;99.90
6252;DHT22;3159;52.414;9.784;2022-11-12T15:16:10;13.10;99.90
6252;DHT22;3159;52.414;9.784;2022-11-12T15:18:42;13.00;99.90
6252;DHT22;3159;52.414;9.784;2022-11-12T15:21:13;13.10;99.90
6252;DHT22;3159;52.414;9.784;2022-11-12T15:23:45;13.00;99.90
6252;DHT22;3159;52.414;9.784;2022-11-12T15:26:22;12.90;99.90
6252;DHT22;3159;52.414;9.784;2022-11-12T15:29:14;12.80;99.90
6252;DHT22;3159;52.414;9.784;2022-11-12T15:31:47;12.80;99.90
6252;DHT22;3159;52.414;9.784;2022-11-12T15:34:27;12.60;99.90
6252;DHT22;3159;52.414;9.784;2022-11-12T15:36:56;12.60;99.90
6252;DHT22;3159;52.414;9.784;2022-11-12T15:39:25;12.40;99.90
6252;DHT22;3159;52.414;9.784;2022-11-12T15:41:58;12.40;99.90
6252;DHT22;3159;52.414;9.784;2022-11-12T15:44:30;12.30;99.90
6252;DHT22;3159;52.414;9.784;2022-11-12T15:46:59;12.20;99.90
6252;DHT22;3159;52.414;9.784;2022-11-12T15:49:26;12.10;99.90
6252;DHT22;3159;52.414;9.784;2022-11-12T15:51:53;12.00;99.90
6252;DHT22;3159;52.414;9.784;2022-11-12T15:54:20;12.00;99.90
6252;DHT22;3159;52.414;9.784;2022-11-12T15:56:48;12.00;99.90
6252;DHT22;3159;52.414;9.784;2022-11-12T15:59:16;11.90;99.90
6252;DHT22;3159;52.414;9.784;2022-11-12T16:01:44;11.90;99.90
6252;DHT22;3159;52.414;9.784;2022-11-12T16:04:12;11.80;99.90
6252;DHT22;3159;52.414;9.784;2022-11-12T16:06:39;11.70;99.90
6252;DHT22;3159;52.414;9.784;2022-11-12T16:09:06;11.60;99.90
6252;DHT22;3159;52.414;9.784;2022-11-12T16:11:33;11.60;99.90
6252;DHT22;3159;52.414;9.784;2022-11-12T16:14:05;11.60;99.90
6252;DHT22;3159;52.414;9.784;2022-11-12T16:16:33;11.60;99.90
6252;DHT22;3159;52.414;9.784;2022-11-12T16:19:00;11.50;99.90
6252;DHT22;3159;52.414;9.784;2022-11-12T16:21:28;11.40;99.90
6252;DHT22;3159;52.414;9.784;2022-11-12T16:23:55;11.40;99.90
6252;DHT22;3159;52.414;9.784;2022-11-12T16:26:26;11.20;99.90
6252;DHT22;3159;52.414;9.784;2022-11-12T16:28:53;11.20;99.90
6252;DHT22;3159;52.414;9.784;2022-11-12T16:31:22;11.20;99.90
6252;DHT22;3159;52.414;9.784;2022-11-12T16:33:49;11.20;99.90
6252;DHT22;3159;52.414;9.784;2022-11-12T16:36:15;11.10;99.90